Port Angeles, WA

4:40 AM PST on February 23, 2017 (GMT -0800)
Fairchild International | | Change Station

Elev 289 ft 48.12 °N, 123.50 °W | Updated 11 minutes ago

Snow
Snow
33 °F
Feels Like 30 °F
N
4
Wind Variable Wind from South

Today
High -- | Low -- °F
--% Chance of Precip.
Yesterday
High -- | Low -- °F
Precip. -- in
Pressure 30.25 in
Visibility 1.5 miles
Clouds Mostly Cloudy 800 ft
Mostly Cloudy 1500 ft
Overcast 2200 ft
Windchill 30 °F
Dew Point 32 °F
Humidity 96%
Rainfall 0.00 in
Snow Depth Not available.
7:05 AM 5:49 PM
Waning Crescent, 10% visible
SPECI KCLM 231229Z AUTO 18003KT 1 1/2SM -SN BR BKN008 BKN015 OVC022 01/00 A3025 RMK AO2 P0002 T00060000
Pressure 30.25 in
Visibility 1.5 miles
Clouds Mostly Cloudy 800 ft
Mostly Cloudy 1500 ft
Overcast 2200 ft
Windchill 30 °F
Dew Point 32 °F
Humidity 96%
Rainfall 0.00 in
Snow Depth Not available.
7:05 AM 5:49 PM
Waning Crescent, 10% visible
SPECI KCLM 231229Z AUTO 18003KT 1 1/2SM -SN BR BKN008 BKN015 OVC022 01/00 A3025 RMK AO2 P0002 T00060000

Get Your Daily Forecast Email!

Thanks for signing up!

Be on the lookout for a verification email in your inbox.

You'll start receiving the daily forecast at 8 AM.

×

10-Day Weather Forecast

Almanac

Astronomy

Feb. 23, 2017 Rise Set
Actual Time
Civil Twilight
Nautical Twilight
Astronomical Twilight
Moon
Length of Visible Light
Length of Day
Tomorrow will be .
, % of the Moon is Illuminated

Today's Extremes

State Highs State Lows

Community

WunderPhotos

Upload Photos

1,962,540 photos uploaded!

WunderBlog® & News

Nearby

Air Quality

  Air Quality AQ Index Pollutant
Not available.

Snow Depth

Station Depth Elevation

Earthquake Activity

City Distance Mag. Time & Date
Minimum magnitude displayed is 2.5.

Coastal Water Temperatures

Place Temperature

Stations

Nearby Weather Stations

Station Location Temp. Windchill Dew Point Humidity Wind Precip. Elev Updated Type
                   

Watches & Warnings

There are currently no watches in effect.